Old Fields, West Virginia
Current Conditions -  °F | °C
As of 7:35 PM on Monday 24 Nov 2014 (Local Time) from KW99 Reporting Station
Broken Clouds Broken Clouds  
Wind Chill: 66°   Ceiling: 8000
Heat Index: 66°   Visibility: 10mi
Dew Point: 37°   Wind: 14mph
Humidity: 35%   Direction: 270°W
Pressure: 29.69"   Gusts: 18mph
Location:  39.14°N, 78.95°W
Report Text: KW99 250035Z AUTO 27012G16KT 10SM BKN080 19/03 A2969 RMK AO2 T01900030
Loading
Personal Weather Stations






























Interactive Weather Map New forecast layout! Learn more

10-Day Weather Forecast

Advertisements
Track Severe Weather on mobile